Main page
METAR-TAF:

METAR-TAF

Airports :

AAC Middle Wallop

Middle Wallop, England

latitude: 51-09N, longitude: 001-34W, elevation: 91 m

Current weather observation

The report was made 46 minutes ago, at 19:20 UTC
Wind 7 kt from the West
Temperature 6°C
Humidity 93%
Pressure 1024 hPa
Visibility 10 km or more

METAR: EGVP 291920Z AUTO 28007KT 9999 OVC015/// 06/05 Q1024

Time: 20:06 (20:06 UTC)


TAF: missing

Weather observations and forecasts of more than 4000 airports (METAR and TAF reports).

The available stations are represented by yellow and red dots on the map.

Hover mouse over dot to see the name of the station.

Then click to see weather observations and forecasts.

To change the map : click on the green buttons with a black cross to zoom in, on the green button with a dash to zoom out, or on the green arrows for adjacent maps.


METAR-TAF: